sensor_id;sensor_type;location;lat;lon;timestamp;temperature;humidity
21035;DHT22;10676;50.848;3.272;2023-12-04T00:01:16;3.60;99.90
21035;DHT22;10676;50.848;3.272;2023-12-04T00:03:42;3.60;99.90
21035;DHT22;10676;50.848;3.272;2023-12-04T00:06:10;3.60;99.90
21035;DHT22;10676;50.848;3.272;2023-12-04T00:08:36;3.60;99.90
21035;DHT22;10676;50.848;3.272;2023-12-04T00:11:03;3.60;99.90
21035;DHT22;10676;50.848;3.272;2023-12-04T00:13:29;3.60;99.90
21035;DHT22;10676;50.848;3.272;2023-12-04T00:15:54;3.60;99.90
21035;DHT22;10676;50.848;3.272;2023-12-04T00:18:20;3.60;99.90
21035;DHT22;10676;50.848;3.272;2023-12-04T00:20:47;3.50;99.90
21035;DHT22;10676;50.848;3.272;2023-12-04T00:23:13;3.60;99.90
21035;DHT22;10676;50.848;3.272;2023-12-04T00:25:38;3.60;99.90
21035;DHT22;10676;50.848;3.272;2023-12-04T00:28:04;3.60;99.90
21035;DHT22;10676;50.848;3.272;2023-12-04T00:30:33;3.60;99.90
21035;DHT22;10676;50.848;3.272;2023-12-04T00:32:59;3.60;99.90
21035;DHT22;10676;50.848;3.272;2023-12-04T00:35:25;3.60;99.90
21035;DHT22;10676;50.848;3.272;2023-12-04T00:37:50;3.70;99.90
21035;DHT22;10676;50.848;3.272;2023-12-04T00:40:16;3.70;99.90
21035;DHT22;10676;50.848;3.272;2023-12-04T00:42:42;3.60;99.90
21035;DHT22;10676;50.848;3.272;2023-12-04T00:45:08;3.70;99.90
21035;DHT22;10676;50.848;3.272;2023-12-04T00:47:33;3.70;99.90
21035;DHT22;10676;50.848;3.272;2023-12-04T00:49:59;3.70;99.90
21035;DHT22;10676;50.848;3.272;2023-12-04T00:52:25;3.70;99.90
21035;DHT22;10676;50.848;3.272;2023-12-04T00:54:50;3.70;99.90
21035;DHT22;10676;50.848;3.272;2023-12-04T00:57:16;3.70;99.90
21035;DHT22;10676;50.848;3.272;2023-12-04T00:59:42;3.70;99.90
21035;DHT22;10676;50.848;3.272;2023-12-04T01:02:07;3.60;99.90
21035;DHT22;10676;50.848;3.272;2023-12-04T01:04:33;3.70;99.90
21035;DHT22;10676;50.848;3.272;2023-12-04T01:06:59;3.70;99.90
21035;DHT22;10676;50.848;3.272;2023-12-04T01:09:25;3.60;99.90
21035;DHT22;10676;50.848;3.272;2023-12-04T01:11:54;3.60;99.90
21035;DHT22;10676;50.848;3.272;2023-12-04T01:14:20;3.60;99.90
21035;DHT22;10676;50.848;3.272;2023-12-04T01:16:47;3.60;99.90
21035;DHT22;10676;50.848;3.272;2023-12-04T01:19:13;3.70;99.90
21035;DHT22;10676;50.848;3.272;2023-12-04T01:21:39;3.70;99.90
21035;DHT22;10676;50.848;3.272;2023-12-04T01:24:06;3.80;99.90
21035;DHT22;10676;50.848;3.272;2023-12-04T01:26:31;3.80;99.90
21035;DHT22;10676;50.848;3.272;2023-12-04T01:28:57;3.80;99.90
21035;DHT22;10676;50.848;3.272;2023-12-04T01:31:23;3.70;99.90
21035;DHT22;10676;50.848;3.272;2023-12-04T01:33:49;3.80;99.90
21035;DHT22;10676;50.848;3.272;2023-12-04T01:36:16;3.80;99.90
21035;DHT22;10676;50.848;3.272;2023-12-04T01:38:41;3.80;99.90
21035;DHT22;10676;50.848;3.272;2023-12-04T01:41:08;3.80;99.90
21035;DHT22;10676;50.848;3.272;2023-12-04T01:43:34;3.80;99.90
21035;DHT22;10676;50.848;3.272;2023-12-04T01:46:01;3.80;99.90
21035;DHT22;10676;50.848;3.272;2023-12-04T01:48:28;3.80;99.90
21035;DHT22;10676;50.848;3.272;2023-12-04T01:51:05;3.80;99.90
21035;DHT22;10676;50.848;3.272;2023-12-04T01:53:32;3.80;99.90
21035;DHT22;10676;50.848;3.272;2023-12-04T01:55:58;3.80;99.90
21035;DHT22;10676;50.848;3.272;2023-12-04T01:58:24;3.80;99.90
21035;DHT22;10676;50.848;3.272;2023-12-04T02:00:50;3.70;99.90
21035;DHT22;10676;50.848;3.272;2023-12-04T02:03:16;3.70;99.90
21035;DHT22;10676;50.848;3.272;2023-12-04T02:05:44;3.80;99.90
21035;DHT22;10676;50.848;3.272;2023-12-04T02:08:10;3.80;99.90
21035;DHT22;10676;50.848;3.272;2023-12-04T02:10:36;3.80;99.90
21035;DHT22;10676;50.848;3.272;2023-12-04T02:13:02;3.70;99.90
21035;DHT22;10676;50.848;3.272;2023-12-04T02:15:28;3.70;99.90
21035;DHT22;10676;50.848;3.272;2023-12-04T02:17:54;3.70;99.90
21035;DHT22;10676;50.848;3.272;2023-12-04T02:20:20;3.70;99.90
21035;DHT22;10676;50.848;3.272;2023-12-04T02:23:05;3.70;99.90
21035;DHT22;10676;50.848;3.272;2023-12-04T02:25:31;3.70;99.90
21035;DHT22;10676;50.848;3.272;2023-12-04T02:28:01;3.80;99.90
21035;DHT22;10676;50.848;3.272;2023-12-04T02:30:30;3.80;99.90
21035;DHT22;10676;50.848;3.272;2023-12-04T02:32:57;3.80;99.90
21035;DHT22;10676;50.848;3.272;2023-12-04T02:35:27;3.80;99.90
21035;DHT22;10676;50.848;3.272;2023-12-04T02:37:55;3.80;99.90
21035;DHT22;10676;50.848;3.272;2023-12-04T02:40:24;3.80;99.90
21035;DHT22;10676;50.848;3.272;2023-12-04T02:42:49;3.80;99.90
21035;DHT22;10676;50.848;3.272;2023-12-04T02:45:15;3.80;99.90
21035;DHT22;10676;50.848;3.272;2023-12-04T02:47:41;3.80;99.90
21035;DHT22;10676;50.848;3.272;2023-12-04T02:50:07;3.90;99.90
21035;DHT22;10676;50.848;3.272;2023-12-04T02:52:32;3.90;99.90
21035;DHT22;10676;50.848;3.272;2023-12-04T02:54:58;3.90;99.90
21035;DHT22;10676;50.848;3.272;2023-12-04T03:00:35;4.00;99.90
21035;DHT22;10676;50.848;3.272;2023-12-04T03:03:01;4.00;99.90
21035;DHT22;10676;50.848;3.272;2023-12-04T03:05:26;4.00;99.90
21035;DHT22;10676;50.848;3.272;2023-12-04T03:07:52;4.10;99.90
21035;DHT22;10676;50.848;3.272;2023-12-04T03:10:18;4.10;99.90
21035;DHT22;10676;50.848;3.272;2023-12-04T03:12:44;4.10;99.90
21035;DHT22;10676;50.848;3.272;2023-12-04T03:15:10;4.10;99.90
21035;DHT22;10676;50.848;3.272;2023-12-04T03:17:37;4.10;99.90
21035;DHT22;10676;50.848;3.272;2023-12-04T03:20:03;4.20;99.90
21035;DHT22;10676;50.848;3.272;2023-12-04T03:22:30;4.20;99.90
21035;DHT22;10676;50.848;3.272;2023-12-04T03:24:56;4.20;99.90
21035;DHT22;10676;50.848;3.272;2023-12-04T03:27:21;4.30;99.90
21035;DHT22;10676;50.848;3.272;2023-12-04T03:29:47;4.30;99.90
21035;DHT22;10676;50.848;3.272;2023-12-04T03:32:12;4.40;99.90
21035;DHT22;10676;50.848;3.272;2023-12-04T03:34:38;4.40;99.90
21035;DHT22;10676;50.848;3.272;2023-12-04T03:37:05;4.40;99.90
21035;DHT22;10676;50.848;3.272;2023-12-04T03:39:31;4.50;99.90
21035;DHT22;10676;50.848;3.272;2023-12-04T03:41:57;4.50;99.90
21035;DHT22;10676;50.848;3.272;2023-12-04T03:44:23;4.50;99.90
21035;DHT22;10676;50.848;3.272;2023-12-04T03:46:48;4.50;99.90
21035;DHT22;10676;50.848;3.272;2023-12-04T03:49:14;4.50;99.90
21035;DHT22;10676;50.848;3.272;2023-12-04T03:51:39;4.50;99.90
21035;DHT22;10676;50.848;3.272;2023-12-04T03:54:05;4.50;99.90
21035;DHT22;10676;50.848;3.272;2023-12-04T03:56:31;4.60;99.90
21035;DHT22;10676;50.848;3.272;2023-12-04T03:58:56;4.60;99.90
21035;DHT22;10676;50.848;3.272;2023-12-04T04:01:23;4.60;99.90
21035;DHT22;10676;50.848;3.272;2023-12-04T04:03:48;4.60;99.90
21035;DHT22;10676;50.848;3.272;2023-12-04T04:06:14;4.60;99.90
21035;DHT22;10676;50.848;3.272;2023-12-04T04:08:41;4.60;99.90
21035;DHT22;10676;50.848;3.272;2023-12-04T04:11:07;4.70;99.90
21035;DHT22;10676;50.848;3.272;2023-12-04T04:13:32;4.60;99.90
21035;DHT22;10676;50.848;3.272;2023-12-04T04:15:58;4.70;99.90
21035;DHT22;10676;50.848;3.272;2023-12-04T04:18:24;4.60;99.90
21035;DHT22;10676;50.848;3.272;2023-12-04T04:20:49;4.60;99.90
21035;DHT22;10676;50.848;3.272;2023-12-04T04:23:15;4.70;99.90
21035;DHT22;10676;50.848;3.272;2023-12-04T04:25:40;4.60;99.90
21035;DHT22;10676;50.848;3.272;2023-12-04T04:28:06;4.60;99.90
21035;DHT22;10676;50.848;3.272;2023-12-04T04:30:32;4.60;99.90
21035;DHT22;10676;50.848;3.272;2023-12-04T04:32:57;4.60;99.90
21035;DHT22;10676;50.848;3.272;2023-12-04T04:35:23;4.60;99.90
21035;DHT22;10676;50.848;3.272;2023-12-04T04:37:52;4.70;99.90
21035;DHT22;10676;50.848;3.272;2023-12-04T04:40:18;4.60;99.90
21035;DHT22;10676;50.848;3.272;2023-12-04T04:42:43;4.60;99.90
21035;DHT22;10676;50.848;3.272;2023-12-04T04:45:09;4.60;99.90
21035;DHT22;10676;50.848;3.272;2023-12-04T04:47:35;4.60;99.90
21035;DHT22;10676;50.848;3.272;2023-12-04T04:50:01;4.70;99.90
21035;DHT22;10676;50.848;3.272;2023-12-04T04:52:27;4.70;99.90
21035;DHT22;10676;50.848;3.272;2023-12-04T04:54:52;4.70;99.90
21035;DHT22;10676;50.848;3.272;2023-12-04T04:57:18;4.70;99.90
21035;DHT22;10676;50.848;3.272;2023-12-04T04:59:44;4.70;99.90
21035;DHT22;10676;50.848;3.272;2023-12-04T05:02:09;4.70;99.90
21035;DHT22;10676;50.848;3.272;2023-12-04T05:04:35;4.70;99.90
21035;DHT22;10676;50.848;3.272;2023-12-04T05:07:01;4.70;99.90
21035;DHT22;10676;50.848;3.272;2023-12-04T05:09:26;4.70;99.90
21035;DHT22;10676;50.848;3.272;2023-12-04T05:11:52;4.70;99.90
21035;DHT22;10676;50.848;3.272;2023-12-04T05:14:18;4.70;99.90
21035;DHT22;10676;50.848;3.272;2023-12-04T05:16:43;4.70;99.90
21035;DHT22;10676;50.848;3.272;2023-12-04T05:19:09;4.70;99.90
21035;DHT22;10676;50.848;3.272;2023-12-04T05:21:34;4.70;99.90
21035;DHT22;10676;50.848;3.272;2023-12-04T05:24:00;4.70;99.90
21035;DHT22;10676;50.848;3.272;2023-12-04T05:26:26;4.70;99.90
21035;DHT22;10676;50.848;3.272;2023-12-04T05:28:53;4.70;99.90
21035;DHT22;10676;50.848;3.272;2023-12-04T05:31:19;4.60;99.90
21035;DHT22;10676;50.848;3.272;2023-12-04T05:33:45;4.60;99.90
21035;DHT22;10676;50.848;3.272;2023-12-04T05:36:11;4.60;99.90
21035;DHT22;10676;50.848;3.272;2023-12-04T05:38:36;4.60;99.90
21035;DHT22;10676;50.848;3.272;2023-12-04T05:41:02;4.60;99.90
21035;DHT22;10676;50.848;3.272;2023-12-04T05:43:28;4.60;99.90
21035;DHT22;10676;50.848;3.272;2023-12-04T05:45:55;4.60;99.90
21035;DHT22;10676;50.848;3.272;2023-12-04T05:48:20;4.60;99.90
21035;DHT22;10676;50.848;3.272;2023-12-04T05:50:46;4.70;99.90
21035;DHT22;10676;50.848;3.272;2023-12-04T05:53:12;4.70;99.90
21035;DHT22;10676;50.848;3.272;2023-12-04T05:55:37;4.70;99.90
21035;DHT22;10676;50.848;3.272;2023-12-04T05:58:03;4.70;99.90
21035;DHT22;10676;50.848;3.272;2023-12-04T06:00:29;4.70;99.90
21035;DHT22;10676;50.848;3.272;2023-12-04T06:02:54;4.70;99.90
21035;DHT22;10676;50.848;3.272;2023-12-04T06:05:20;4.60;99.90
21035;DHT22;10676;50.848;3.272;2023-12-04T06:07:46;4.60;99.90
21035;DHT22;10676;50.848;3.272;2023-12-04T06:10:11;4.60;99.90
21035;DHT22;10676;50.848;3.272;2023-12-04T06:12:37;4.50;99.90
21035;DHT22;10676;50.848;3.272;2023-12-04T06:15:03;4.40;99.90
21035;DHT22;10676;50.848;3.272;2023-12-04T06:17:30;4.30;99.90
21035;DHT22;10676;50.848;3.272;2023-12-04T06:19:58;4.20;99.90
21035;DHT22;10676;50.848;3.272;2023-12-04T06:22:23;4.10;99.90
21035;DHT22;10676;50.848;3.272;2023-12-04T06:24:49;4.00;99.90
21035;DHT22;10676;50.848;3.272;2023-12-04T06:27:17;4.00;99.90
21035;DHT22;10676;50.848;3.272;2023-12-04T06:29:45;3.90;99.90
21035;DHT22;10676;50.848;3.272;2023-12-04T06:32:12;3.80;99.90
21035;DHT22;10676;50.848;3.272;2023-12-04T06:34:38;3.80;99.90
21035;DHT22;10676;50.848;3.272;2023-12-04T06:37:13;3.70;99.90
21035;DHT22;10676;50.848;3.272;2023-12-04T06:39:39;3.70;99.90
21035;DHT22;10676;50.848;3.272;2023-12-04T06:42:06;3.60;99.90
21035;DHT22;10676;50.848;3.272;2023-12-04T06:44:33;3.60;99.90
21035;DHT22;10676;50.848;3.272;2023-12-04T06:47:00;3.50;99.90
21035;DHT22;10676;50.848;3.272;2023-12-04T06:49:36;3.50;99.90
21035;DHT22;10676;50.848;3.272;2023-12-04T06:52:02;3.50;99.90
21035;DHT22;10676;50.848;3.272;2023-12-04T06:54:28;3.40;99.90
21035;DHT22;10676;50.848;3.272;2023-12-04T06:56:54;3.40;99.90
21035;DHT22;10676;50.848;3.272;2023-12-04T06:59:20;3.40;99.90
21035;DHT22;10676;50.848;3.272;2023-12-04T07:01:46;3.40;99.90
21035;DHT22;10676;50.848;3.272;2023-12-04T07:04:12;3.30;99.90
21035;DHT22;10676;50.848;3.272;2023-12-04T07:06:39;3.30;99.90
21035;DHT22;10676;50.848;3.272;2023-12-04T07:09:06;3.30;99.90
21035;DHT22;10676;50.848;3.272;2023-12-04T07:11:34;3.20;99.90
21035;DHT22;10676;50.848;3.272;2023-12-04T07:13:59;3.20;99.90
21035;DHT22;10676;50.848;3.272;2023-12-04T07:16:25;3.20;99.90
21035;DHT22;10676;50.848;3.272;2023-12-04T07:18:51;3.20;99.90
21035;DHT22;10676;50.848;3.272;2023-12-04T07:21:16;3.10;99.90
21035;DHT22;10676;50.848;3.272;2023-12-04T07:23:42;3.10;99.90
21035;DHT22;10676;50.848;3.272;2023-12-04T07:26:08;3.10;99.90
21035;DHT22;10676;50.848;3.272;2023-12-04T07:28:34;3.10;99.90
21035;DHT22;10676;50.848;3.272;2023-12-04T07:31:02;3.10;99.90
21035;DHT22;10676;50.848;3.272;2023-12-04T07:33:28;3.10;99.90
21035;DHT22;10676;50.848;3.272;2023-12-04T07:35:54;3.10;99.90
21035;DHT22;10676;50.848;3.272;2023-12-04T07:38:20;3.10;99.90
21035;DHT22;10676;50.848;3.272;2023-12-04T07:40:45;3.10;99.90
21035;DHT22;10676;50.848;3.272;2023-12-04T07:43:12;3.10;99.90
21035;DHT22;10676;50.848;3.272;2023-12-04T07:45:39;3.10;99.90
21035;DHT22;10676;50.848;3.272;2023-12-04T07:48:05;3.10;99.90
21035;DHT22;10676;50.848;3.272;2023-12-04T07:50:31;3.10;99.90
21035;DHT22;10676;50.848;3.272;2023-12-04T07:52:57;3.10;99.90
21035;DHT22;10676;50.848;3.272;2023-12-04T07:55:22;3.20;99.90
21035;DHT22;10676;50.848;3.272;2023-12-04T07:57:48;3.20;99.90
21035;DHT22;10676;50.848;3.272;2023-12-04T08:00:16;3.20;99.90
21035;DHT22;10676;50.848;3.272;2023-12-04T08:02:43;3.20;99.90
21035;DHT22;10676;50.848;3.272;2023-12-04T08:05:10;3.20;99.90
21035;DHT22;10676;50.848;3.272;2023-12-04T08:07:36;3.30;99.90
21035;DHT22;10676;50.848;3.272;2023-12-04T08:10:01;3.30;99.90
21035;DHT22;10676;50.848;3.272;2023-12-04T08:12:27;3.30;99.90
21035;DHT22;10676;50.848;3.272;2023-12-04T08:14:53;3.30;99.90
21035;DHT22;10676;50.848;3.272;2023-12-04T08:17:18;3.30;99.90
21035;DHT22;10676;50.848;3.272;2023-12-04T08:19:44;3.50;99.90
21035;DHT22;10676;50.848;3.272;2023-12-04T08:22:10;3.50;99.90
21035;DHT22;10676;50.848;3.272;2023-12-04T08:24:36;3.40;99.90
21035;DHT22;10676;50.848;3.272;2023-12-04T08:27:01;3.50;99.90
21035;DHT22;10676;50.848;3.272;2023-12-04T08:29:27;3.50;99.90
21035;DHT22;10676;50.848;3.272;2023-12-04T08:31:52;3.50;99.90
21035;DHT22;10676;50.848;3.272;2023-12-04T08:34:18;3.50;99.90
21035;DHT22;10676;50.848;3.272;2023-12-04T08:36:44;3.50;99.90
21035;DHT22;10676;50.848;3.272;2023-12-04T08:39:09;3.50;99.90
21035;DHT22;10676;50.848;3.272;2023-12-04T08:41:35;3.50;99.90
21035;DHT22;10676;50.848;3.272;2023-12-04T08:44:01;3.50;99.90
21035;DHT22;10676;50.848;3.272;2023-12-04T08:46:27;3.60;99.90
21035;DHT22;10676;50.848;3.272;2023-12-04T08:48:52;3.60;99.90
21035;DHT22;10676;50.848;3.272;2023-12-04T08:51:19;3.60;99.90
21035;DHT22;10676;50.848;3.272;2023-12-04T08:53:44;3.60;99.90
21035;DHT22;10676;50.848;3.272;2023-12-04T08:56:10;3.70;99.90
21035;DHT22;10676;50.848;3.272;2023-12-04T08:58:37;3.70;99.90
21035;DHT22;10676;50.848;3.272;2023-12-04T09:01:03;3.70;99.90
21035;DHT22;10676;50.848;3.272;2023-12-04T09:03:29;3.70;99.90
21035;DHT22;10676;50.848;3.272;2023-12-04T09:05:57;3.80;99.90
21035;DHT22;10676;50.848;3.272;2023-12-04T09:08:23;3.80;99.90
21035;DHT22;10676;50.848;3.272;2023-12-04T09:10:51;3.80;99.90
21035;DHT22;10676;50.848;3.272;2023-12-04T09:13:17;3.80;99.90
21035;DHT22;10676;50.848;3.272;2023-12-04T09:15:43;3.90;99.90
21035;DHT22;10676;50.848;3.272;2023-12-04T09:18:08;3.90;99.90
21035;DHT22;10676;50.848;3.272;2023-12-04T09:20:34;3.90;99.90
21035;DHT22;10676;50.848;3.272;2023-12-04T09:23:01;4.00;99.90
21035;DHT22;10676;50.848;3.272;2023-12-04T09:25:27;3.90;99.90
21035;DHT22;10676;50.848;3.272;2023-12-04T09:27:53;4.00;99.90
21035;DHT22;10676;50.848;3.272;2023-12-04T09:30:18;4.00;99.90
21035;DHT22;10676;50.848;3.272;2023-12-04T09:32:44;4.10;99.90
21035;DHT22;10676;50.848;3.272;2023-12-04T09:35:10;4.10;99.90
21035;DHT22;10676;50.848;3.272;2023-12-04T09:37:36;4.10;99.90
21035;DHT22;10676;50.848;3.272;2023-12-04T09:40:01;4.10;99.90
21035;DHT22;10676;50.848;3.272;2023-12-04T09:42:30;4.20;99.90
21035;DHT22;10676;50.848;3.272;2023-12-04T09:44:56;4.20;99.90
21035;DHT22;10676;50.848;3.272;2023-12-04T09:47:24;4.30;99.90
21035;DHT22;10676;50.848;3.272;2023-12-04T09:49:51;4.30;99.90
21035;DHT22;10676;50.848;3.272;2023-12-04T09:52:19;4.50;99.90
21035;DHT22;10676;50.848;3.272;2023-12-04T09:54:45;4.50;99.90
21035;DHT22;10676;50.848;3.272;2023-12-04T09:57:11;4.60;99.90
21035;DHT22;10676;50.848;3.272;2023-12-04T09:59:38;4.50;99.90
21035;DHT22;10676;50.848;3.272;2023-12-04T10:02:05;4.60;99.90
21035;DHT22;10676;50.848;3.272;2023-12-04T10:04:32;4.60;99.90
21035;DHT22;10676;50.848;3.272;2023-12-04T10:06:58;4.60;99.90
21035;DHT22;10676;50.848;3.272;2023-12-04T10:09:24;4.70;99.90
21035;DHT22;10676;50.848;3.272;2023-12-04T10:11:54;4.60;99.90
21035;DHT22;10676;50.848;3.272;2023-12-04T10:14:21;4.70;99.90
21035;DHT22;10676;50.848;3.272;2023-12-04T10:16:48;4.70;99.90
21035;DHT22;10676;50.848;3.272;2023-12-04T10:19:26;4.70;99.90
21035;DHT22;10676;50.848;3.272;2023-12-04T10:21:54;4.60;99.90
21035;DHT22;10676;50.848;3.272;2023-12-04T10:24:40;4.60;99.90
21035;DHT22;10676;50.848;3.272;2023-12-04T10:27:07;4.50;99.90
21035;DHT22;10676;50.848;3.272;2023-12-04T10:29:49;4.50;99.90
21035;DHT22;10676;50.848;3.272;2023-12-04T10:32:21;4.50;99.90
21035;DHT22;10676;50.848;3.272;2023-12-04T10:34:50;4.50;99.90
21035;DHT22;10676;50.848;3.272;2023-12-04T10:37:16;4.50;99.90
21035;DHT22;10676;50.848;3.272;2023-12-04T10:39:50;4.60;99.90
21035;DHT22;10676;50.848;3.272;2023-12-04T10:42:35;4.70;99.90
21035;DHT22;10676;50.848;3.272;2023-12-04T10:45:00;4.80;99.90
21035;DHT22;10676;50.848;3.272;2023-12-04T10:47:29;4.90;99.90
21035;DHT22;10676;50.848;3.272;2023-12-04T10:49:56;5.00;99.90
21035;DHT22;10676;50.848;3.272;2023-12-04T10:52:22;5.10;99.90
21035;DHT22;10676;50.848;3.272;2023-12-04T10:54:49;5.10;99.90
21035;DHT22;10676;50.848;3.272;2023-12-04T10:57:25;5.20;99.90
21035;DHT22;10676;50.848;3.272;2023-12-04T10:59:56;5.10;99.90
21035;DHT22;10676;50.848;3.272;2023-12-04T11:02:26;5.10;99.90
21035;DHT22;10676;50.848;3.272;2023-12-04T11:05:00;5.20;99.90
21035;DHT22;10676;50.848;3.272;2023-12-04T11:07:30;5.30;99.90
21035;DHT22;10676;50.848;3.272;2023-12-04T11:09:59;5.30;99.90
21035;DHT22;10676;50.848;3.272;2023-12-04T11:12:29;5.40;99.90
21035;DHT22;10676;50.848;3.272;2023-12-04T11:14:57;5.40;99.90
21035;DHT22;10676;50.848;3.272;2023-12-04T11:17:26;5.50;99.90
21035;DHT22;10676;50.848;3.272;2023-12-04T11:20:24;5.50;99.90
21035;DHT22;10676;50.848;3.272;2023-12-04T11:22:53;5.70;99.90
21035;DHT22;10676;50.848;3.272;2023-12-04T11:25:20;5.70;99.90
21035;DHT22;10676;50.848;3.272;2023-12-04T11:27:49;5.70;99.90
21035;DHT22;10676;50.848;3.272;2023-12-04T11:30:15;5.80;99.90
21035;DHT22;10676;50.848;3.272;2023-12-04T11:32:48;5.90;99.90
21035;DHT22;10676;50.848;3.272;2023-12-04T11:35:18;6.00;99.90
21035;DHT22;10676;50.848;3.272;2023-12-04T11:37:48;6.00;99.90
21035;DHT22;10676;50.848;3.272;2023-12-04T11:40:18;6.20;99.90
21035;DHT22;10676;50.848;3.272;2023-12-04T11:42:44;6.30;99.90
21035;DHT22;10676;50.848;3.272;2023-12-04T11:45:10;6.40;99.90
21035;DHT22;10676;50.848;3.272;2023-12-04T11:47:50;6.50;99.90
21035;DHT22;10676;50.848;3.272;2023-12-04T11:50:18;6.60;99.90
21035;DHT22;10676;50.848;3.272;2023-12-04T11:52:44;6.70;99.90
21035;DHT22;10676;50.848;3.272;2023-12-04T11:55:11;6.80;99.90
21035;DHT22;10676;50.848;3.272;2023-12-04T11:57:37;6.90;99.90
21035;DHT22;10676;50.848;3.272;2023-12-04T12:00:23;7.00;99.90
21035;DHT22;10676;50.848;3.272;2023-12-04T12:05:24;7.30;99.90
21035;DHT22;10676;50.848;3.272;2023-12-04T12:07:54;7.40;99.90
21035;DHT22;10676;50.848;3.272;2023-12-04T12:10:20;7.40;99.90
21035;DHT22;10676;50.848;3.272;2023-12-04T12:12:46;7.50;99.90
21035;DHT22;10676;50.848;3.272;2023-12-04T12:15:13;7.40;99.90
21035;DHT22;10676;50.848;3.272;2023-12-04T12:17:39;7.40;99.90
21035;DHT22;10676;50.848;3.272;2023-12-04T12:20:10;7.30;99.90
21035;DHT22;10676;50.848;3.272;2023-12-04T12:22:37;7.20;99.90
21035;DHT22;10676;50.848;3.272;2023-12-04T12:25:07;7.20;99.90
21035;DHT22;10676;50.848;3.272;2023-12-04T12:27:33;7.10;99.90
21035;DHT22;10676;50.848;3.272;2023-12-04T12:30:00;7.20;99.90
21035;DHT22;10676;50.848;3.272;2023-12-04T12:32:26;7.10;99.90
21035;DHT22;10676;50.848;3.272;2023-12-04T12:34:52;7.10;99.90
21035;DHT22;10676;50.848;3.272;2023-12-04T12:37:18;7.00;99.90
21035;DHT22;10676;50.848;3.272;2023-12-04T12:39:44;6.90;99.90
21035;DHT22;10676;50.848;3.272;2023-12-04T12:42:10;6.80;99.90
21035;DHT22;10676;50.848;3.272;2023-12-04T12:44:40;6.70;99.90
21035;DHT22;10676;50.848;3.272;2023-12-04T12:47:06;6.70;99.90
21035;DHT22;10676;50.848;3.272;2023-12-04T12:49:33;6.60;99.90
21035;DHT22;10676;50.848;3.272;2023-12-04T12:52:05;6.60;99.90
21035;DHT22;10676;50.848;3.272;2023-12-04T12:54:36;6.60;99.90
21035;DHT22;10676;50.848;3.272;2023-12-04T12:57:01;6.50;99.90
21035;DHT22;10676;50.848;3.272;2023-12-04T12:59:27;6.60;99.90
21035;DHT22;10676;50.848;3.272;2023-12-04T13:01:53;6.50;99.90
21035;DHT22;10676;50.848;3.272;2023-12-04T13:04:19;6.60;99.90
21035;DHT22;10676;50.848;3.272;2023-12-04T13:06:45;6.60;99.90
21035;DHT22;10676;50.848;3.272;2023-12-04T13:09:12;6.60;99.90
21035;DHT22;10676;50.848;3.272;2023-12-04T13:11:45;6.60;99.90
21035;DHT22;10676;50.848;3.272;2023-12-04T13:14:10;6.60;99.90
21035;DHT22;10676;50.848;3.272;2023-12-04T13:16:36;6.70;99.90
21035;DHT22;10676;50.848;3.272;2023-12-04T13:19:02;6.70;99.90
21035;DHT22;10676;50.848;3.272;2023-12-04T13:21:27;6.60;99.90
21035;DHT22;10676;50.848;3.272;2023-12-04T13:23:54;6.60;99.90
21035;DHT22;10676;50.848;3.272;2023-12-04T13:26:20;6.60;99.90
21035;DHT22;10676;50.848;3.272;2023-12-04T13:28:47;6.60;99.90
21035;DHT22;10676;50.848;3.272;2023-12-04T13:31:13;6.50;99.90
21035;DHT22;10676;50.848;3.272;2023-12-04T13:33:38;6.50;99.90
21035;DHT22;10676;50.848;3.272;2023-12-04T13:36:05;6.50;99.90
21035;DHT22;10676;50.848;3.272;2023-12-04T13:38:30;6.50;99.90
21035;DHT22;10676;50.848;3.272;2023-12-04T13:40:56;6.40;99.90
21035;DHT22;10676;50.848;3.272;2023-12-04T13:43:28;6.40;99.90
21035;DHT22;10676;50.848;3.272;2023-12-04T13:46:15;6.40;99.90
21035;DHT22;10676;50.848;3.272;2023-12-04T13:48:46;6.30;99.90
21035;DHT22;10676;50.848;3.272;2023-12-04T13:51:13;6.30;99.90
21035;DHT22;10676;50.848;3.272;2023-12-04T13:53:40;6.30;99.90
21035;DHT22;10676;50.848;3.272;2023-12-04T13:56:11;6.30;99.90
21035;DHT22;10676;50.848;3.272;2023-12-04T13:58:49;6.20;99.90
21035;DHT22;10676;50.848;3.272;2023-12-04T14:01:25;6.20;99.90
21035;DHT22;10676;50.848;3.272;2023-12-04T14:03:54;6.20;99.90
21035;DHT22;10676;50.848;3.272;2023-12-04T14:06:22;6.20;99.90
21035;DHT22;10676;50.848;3.272;2023-12-04T14:08:48;6.30;99.90
21035;DHT22;10676;50.848;3.272;2023-12-04T14:11:13;6.30;99.90
21035;DHT22;10676;50.848;3.272;2023-12-04T14:13:40;6.30;99.90
21035;DHT22;10676;50.848;3.272;2023-12-04T14:16:06;6.30;99.90
21035;DHT22;10676;50.848;3.272;2023-12-04T14:18:32;6.30;99.90
21035;DHT22;10676;50.848;3.272;2023-12-04T14:20:58;6.40;99.90
21035;DHT22;10676;50.848;3.272;2023-12-04T14:23:24;6.40;99.90
21035;DHT22;10676;50.848;3.272;2023-12-04T14:25:49;6.40;99.90
21035;DHT22;10676;50.848;3.272;2023-12-04T14:28:16;6.50;99.90
21035;DHT22;10676;50.848;3.272;2023-12-04T14:30:41;6.50;99.90
21035;DHT22;10676;50.848;3.272;2023-12-04T14:33:07;6.50;99.90
21035;DHT22;10676;50.848;3.272;2023-12-04T14:35:35;6.50;99.90
21035;DHT22;10676;50.848;3.272;2023-12-04T14:38:03;6.50;99.90
21035;DHT22;10676;50.848;3.272;2023-12-04T14:40:32;6.50;99.90
21035;DHT22;10676;50.848;3.272;2023-12-04T14:42:58;6.50;99.90
21035;DHT22;10676;50.848;3.272;2023-12-04T14:45:24;6.50;99.90
21035;DHT22;10676;50.848;3.272;2023-12-04T14:47:49;6.50;99.90
21035;DHT22;10676;50.848;3.272;2023-12-04T14:50:20;6.40;99.90
21035;DHT22;10676;50.848;3.272;2023-12-04T14:52:46;6.40;99.90
21035;DHT22;10676;50.848;3.272;2023-12-04T14:55:16;6.40;99.90
21035;DHT22;10676;50.848;3.272;2023-12-04T14:57:51;6.40;99.90
21035;DHT22;10676;50.848;3.272;2023-12-04T15:00:35;6.30;99.90
21035;DHT22;10676;50.848;3.272;2023-12-04T15:03:19;6.30;99.90
21035;DHT22;10676;50.848;3.272;2023-12-04T15:05:54;6.30;99.90
21035;DHT22;10676;50.848;3.272;2023-12-04T15:08:37;6.30;99.90
21035;DHT22;10676;50.848;3.272;2023-12-04T15:11:22;6.30;99.90
21035;DHT22;10676;50.848;3.272;2023-12-04T15:14:06;6.30;99.90
21035;DHT22;10676;50.848;3.272;2023-12-04T15:16:50;6.30;99.90
21035;DHT22;10676;50.848;3.272;2023-12-04T15:19:21;6.30;99.90
21035;DHT22;10676;50.848;3.272;2023-12-04T15:22:09;6.30;99.90
21035;DHT22;10676;50.848;3.272;2023-12-04T15:24:35;6.30;99.90
21035;DHT22;10676;50.848;3.272;2023-12-04T15:27:01;6.20;99.90
21035;DHT22;10676;50.848;3.272;2023-12-04T15:29:28;6.30;99.90
21035;DHT22;10676;50.848;3.272;2023-12-04T15:31:55;6.20;99.90
21035;DHT22;10676;50.848;3.272;2023-12-04T15:34:21;6.30;99.90
21035;DHT22;10676;50.848;3.272;2023-12-04T15:36:47;6.30;99.90
21035;DHT22;10676;50.848;3.272;2023-12-04T15:39:13;6.30;99.90
21035;DHT22;10676;50.848;3.272;2023-12-04T15:41:41;6.30;99.90
21035;DHT22;10676;50.848;3.272;2023-12-04T15:44:07;6.30;99.90
21035;DHT22;10676;50.848;3.272;2023-12-04T15:46:34;6.30;99.90
21035;DHT22;10676;50.848;3.272;2023-12-04T15:48:59;6.40;99.90
21035;DHT22;10676;50.848;3.272;2023-12-04T15:51:25;6.40;99.90